createdAt,value
2023-03-05T04:56:19.064Z,2.03
2023-03-05T04:58:46.467Z,2.17
2023-03-05T05:01:14.027Z,2.00
2023-03-05T05:03:41.340Z,2.40
2023-03-05T05:06:10.560Z,2.42
2023-03-05T05:08:38.327Z,2.58
2023-03-05T05:11:07.982Z,2.47
2023-03-05T05:13:38.754Z,2.40
2023-03-05T05:18:50.814Z,2.00
2023-03-05T05:21:18.854Z,2.15
2023-03-05T05:37:09.206Z,2.22
2023-03-05T05:42:24.106Z,2.38
2023-03-05T05:44:51.437Z,2.00
2023-03-05T05:47:19.237Z,1.63
2023-03-05T05:54:23.207Z,2.60
2023-03-05T05:56:50.626Z,2.50
2023-03-05T06:01:59.743Z,2.40
2023-03-05T06:04:30.249Z,2.78
2023-03-05T06:06:59.033Z,2.60
2023-03-05T06:09:26.931Z,2.33
2023-03-05T06:11:54.298Z,2.47
2023-03-05T06:14:21.677Z,3.33
2023-03-05T06:16:49.174Z,2.47
2023-03-05T06:19:17.351Z,4.15
2023-03-05T06:21:47.598Z,5.45
2023-03-05T06:37:53.701Z,7.20
2023-03-05T06:43:02.170Z,9.88
2023-03-05T06:45:29.706Z,11.50
2023-03-05T06:47:57.045Z,9.88
2023-03-05T06:50:24.491Z,10.43
2023-03-05T06:52:51.708Z,11.75
2023-03-05T06:55:19.510Z,11.70
2023-03-05T06:57:46.822Z,9.95
2023-03-05T07:00:14.651Z,11.40
2023-03-05T07:02:42.963Z,11.80
2023-03-05T07:05:10.586Z,2.30
2023-03-05T07:10:19.627Z,18.73
2023-03-05T07:12:46.877Z,29.15
2023-03-05T07:15:14.330Z,29.08
2023-03-05T07:17:43.992Z,26.10
2023-03-05T07:20:12.123Z,999.90
2023-03-05T07:22:39.684Z,999.90
2023-03-05T07:25:07.303Z,999.90
2023-03-05T07:27:38.538Z,999.90
2023-03-05T07:30:06.616Z,999.90
2023-03-05T07:32:35.492Z,999.90
2023-03-05T07:37:44.856Z,999.90
2023-03-05T07:40:12.765Z,999.90
2023-03-05T07:42:40.211Z,999.90
2023-03-05T07:45:23.151Z,999.90
2023-03-05T07:47:52.477Z,999.90
2023-03-05T07:50:20.084Z,1.88
2023-03-05T07:52:47.151Z,1.80
2023-03-05T07:55:24.026Z,1.67
2023-03-05T07:57:51.572Z,1.70
2023-03-05T08:00:19.206Z,1.83
2023-03-05T08:02:46.547Z,2.55
2023-03-05T08:05:14.406Z,2.03
2023-03-05T08:07:41.793Z,1.63
2023-03-05T08:10:09.877Z,2.22
2023-03-05T08:12:37.144Z,2.20
2023-03-05T08:15:05.321Z,2.20
2023-03-05T08:17:32.600Z,2.30
2023-03-05T08:20:00.471Z,2.05
2023-03-05T08:22:39.776Z,3.15
2023-03-05T08:25:08.949Z,2.50
2023-03-05T08:27:54.052Z,2.72
2023-03-05T08:30:23.059Z,2.80
2023-03-05T08:32:50.495Z,2.60
2023-03-05T08:35:17.942Z,2.40
2023-03-05T08:37:45.749Z,3.08
2023-03-05T08:40:15.004Z,3.40
2023-03-05T08:42:42.128Z,3.20
2023-03-05T08:45:10.374Z,3.10
2023-03-05T08:47:37.862Z,3.20
2023-03-05T08:50:05.681Z,3.58
2023-03-05T08:52:33.199Z,3.35
2023-03-05T08:55:00.648Z,3.47
2023-03-05T08:57:29.105Z,3.75
2023-03-05T08:59:56.622Z,4.20
2023-03-05T09:02:24.121Z,4.13
2023-03-05T09:04:51.556Z,3.90
2023-03-05T09:07:18.797Z,3.40
2023-03-05T09:09:46.107Z,3.00
2023-03-05T09:12:13.745Z,3.72
2023-03-05T09:14:41.155Z,3.45
2023-03-05T09:17:42.295Z,3.75
2023-03-05T09:20:28.464Z,3.75
2023-03-05T09:22:56.110Z,3.63
2023-03-05T09:25:23.200Z,3.30
2023-03-05T09:27:50.620Z,3.03
2023-03-05T09:30:21.394Z,3.75
2023-03-05T09:32:48.729Z,3.80
2023-03-05T09:35:16.224Z,3.95
2023-03-05T09:37:43.465Z,4.25
2023-03-05T09:40:16.551Z,4.00
